sensor_id;sensor_type;location;lat;lon;timestamp;temperature;humidity
14093;DHT22;7123;49.468;10.992;2023-04-24T00:01:02;15.80;99.90
14093;DHT22;7123;49.468;10.992;2023-04-24T00:03:29;15.80;99.90
14093;DHT22;7123;49.468;10.992;2023-04-24T00:05:56;15.80;99.90
14093;DHT22;7123;49.468;10.992;2023-04-24T00:08:23;15.80;99.90
14093;DHT22;7123;49.468;10.992;2023-04-24T00:10:50;15.80;99.90
14093;DHT22;7123;49.468;10.992;2023-04-24T00:13:18;15.80;99.90
14093;DHT22;7123;49.468;10.992;2023-04-24T00:15:45;15.80;99.90
14093;DHT22;7123;49.468;10.992;2023-04-24T00:18:11;15.70;99.90
14093;DHT22;7123;49.468;10.992;2023-04-24T00:20:38;15.70;99.90
14093;DHT22;7123;49.468;10.992;2023-04-24T00:23:06;15.70;99.90
14093;DHT22;7123;49.468;10.992;2023-04-24T00:25:32;15.70;99.90
14093;DHT22;7123;49.468;10.992;2023-04-24T00:27:59;15.70;99.90
14093;DHT22;7123;49.468;10.992;2023-04-24T00:30:26;15.70;99.90
14093;DHT22;7123;49.468;10.992;2023-04-24T00:32:52;15.70;99.90
14093;DHT22;7123;49.468;10.992;2023-04-24T00:35:19;15.70;99.90
14093;DHT22;7123;49.468;10.992;2023-04-24T00:37:46;15.70;99.90
14093;DHT22;7123;49.468;10.992;2023-04-24T00:40:13;15.70;99.90
14093;DHT22;7123;49.468;10.992;2023-04-24T00:42:40;15.60;99.90
14093;DHT22;7123;49.468;10.992;2023-04-24T00:45:07;15.60;99.90
14093;DHT22;7123;49.468;10.992;2023-04-24T00:47:34;15.60;99.90
14093;DHT22;7123;49.468;10.992;2023-04-24T00:50:02;15.60;99.90
14093;DHT22;7123;49.468;10.992;2023-04-24T00:52:29;15.60;99.90
14093;DHT22;7123;49.468;10.992;2023-04-24T00:54:58;15.60;99.90
14093;DHT22;7123;49.468;10.992;2023-04-24T00:57:25;15.60;99.90
14093;DHT22;7123;49.468;10.992;2023-04-24T00:59:52;15.60;99.90
14093;DHT22;7123;49.468;10.992;2023-04-24T01:02:20;15.60;99.90
14093;DHT22;7123;49.468;10.992;2023-04-24T01:04:49;15.60;99.90
14093;DHT22;7123;49.468;10.992;2023-04-24T01:07:18;15.60;99.90
14093;DHT22;7123;49.468;10.992;2023-04-24T01:09:48;15.60;99.90
14093;DHT22;7123;49.468;10.992;2023-04-24T01:12:18;15.60;99.90
14093;DHT22;7123;49.468;10.992;2023-04-24T01:14:45;15.60;99.90
14093;DHT22;7123;49.468;10.992;2023-04-24T01:17:11;15.50;99.90
14093;DHT22;7123;49.468;10.992;2023-04-24T01:19:38;15.50;99.90
14093;DHT22;7123;49.468;10.992;2023-04-24T01:22:16;15.50;99.90
14093;DHT22;7123;49.468;10.992;2023-04-24T01:24:43;15.50;99.90
14093;DHT22;7123;49.468;10.992;2023-04-24T01:27:10;15.40;99.90
14093;DHT22;7123;49.468;10.992;2023-04-24T01:29:37;15.30;99.90
14093;DHT22;7123;49.468;10.992;2023-04-24T01:32:04;15.10;99.90
14093;DHT22;7123;49.468;10.992;2023-04-24T01:34:32;14.90;99.90
14093;DHT22;7123;49.468;10.992;2023-04-24T01:36:59;14.60;99.90
14093;DHT22;7123;49.468;10.992;2023-04-24T01:39:26;14.30;99.90
14093;DHT22;7123;49.468;10.992;2023-04-24T01:41:55;13.80;99.90
14093;DHT22;7123;49.468;10.992;2023-04-24T01:44:22;13.60;99.90
14093;DHT22;7123;49.468;10.992;2023-04-24T01:46:49;13.60;99.90
14093;DHT22;7123;49.468;10.992;2023-04-24T01:49:17;13.80;99.90
14093;DHT22;7123;49.468;10.992;2023-04-24T01:51:44;14.00;99.90
14093;DHT22;7123;49.468;10.992;2023-04-24T01:54:11;14.20;99.90
14093;DHT22;7123;49.468;10.992;2023-04-24T01:56:40;14.30;99.90
14093;DHT22;7123;49.468;10.992;2023-04-24T01:59:10;14.40;99.90
14093;DHT22;7123;49.468;10.992;2023-04-24T02:01:37;14.50;99.90
14093;DHT22;7123;49.468;10.992;2023-04-24T02:04:06;14.50;99.90
14093;DHT22;7123;49.468;10.992;2023-04-24T02:06:33;14.50;99.90
14093;DHT22;7123;49.468;10.992;2023-04-24T02:09:00;14.60;99.90
14093;DHT22;7123;49.468;10.992;2023-04-24T02:11:27;14.60;99.90
14093;DHT22;7123;49.468;10.992;2023-04-24T02:13:54;14.60;99.90
14093;DHT22;7123;49.468;10.992;2023-04-24T02:16:21;14.50;99.90
14093;DHT22;7123;49.468;10.992;2023-04-24T02:18:47;14.50;99.90
14093;DHT22;7123;49.468;10.992;2023-04-24T02:21:14;14.50;99.90
14093;DHT22;7123;49.468;10.992;2023-04-24T02:23:41;14.50;99.90
14093;DHT22;7123;49.468;10.992;2023-04-24T02:26:08;14.50;99.90
14093;DHT22;7123;49.468;10.992;2023-04-24T02:28:34;14.50;99.90
14093;DHT22;7123;49.468;10.992;2023-04-24T02:31:01;14.50;99.90
14093;DHT22;7123;49.468;10.992;2023-04-24T02:33:28;14.50;99.90
14093;DHT22;7123;49.468;10.992;2023-04-24T02:35:55;14.50;99.90
14093;DHT22;7123;49.468;10.992;2023-04-24T02:38:22;14.50;99.90
14093;DHT22;7123;49.468;10.992;2023-04-24T02:40:49;14.60;99.90
14093;DHT22;7123;49.468;10.992;2023-04-24T02:43:15;14.60;99.90
14093;DHT22;7123;49.468;10.992;2023-04-24T02:45:42;14.60;99.90
14093;DHT22;7123;49.468;10.992;2023-04-24T02:48:09;14.70;99.90
14093;DHT22;7123;49.468;10.992;2023-04-24T02:50:35;14.60;99.90
14093;DHT22;7123;49.468;10.992;2023-04-24T02:53:02;14.60;99.90
14093;DHT22;7123;49.468;10.992;2023-04-24T02:55:29;14.60;99.90
14093;DHT22;7123;49.468;10.992;2023-04-24T02:57:56;14.70;99.90
14093;DHT22;7123;49.468;10.992;2023-04-24T03:00:23;14.70;99.90
14093;DHT22;7123;49.468;10.992;2023-04-24T03:02:50;14.70;99.90
14093;DHT22;7123;49.468;10.992;2023-04-24T03:05:17;14.70;99.90
14093;DHT22;7123;49.468;10.992;2023-04-24T03:07:44;14.60;99.90
14093;DHT22;7123;49.468;10.992;2023-04-24T03:10:11;14.70;99.90
14093;DHT22;7123;49.468;10.992;2023-04-24T03:12:38;14.70;99.90
14093;DHT22;7123;49.468;10.992;2023-04-24T03:15:06;14.70;99.90
14093;DHT22;7123;49.468;10.992;2023-04-24T03:17:32;14.70;99.90
14093;DHT22;7123;49.468;10.992;2023-04-24T03:19:59;14.70;99.90
14093;DHT22;7123;49.468;10.992;2023-04-24T03:22:26;14.70;99.90
14093;DHT22;7123;49.468;10.992;2023-04-24T03:24:52;14.70;99.90
14093;DHT22;7123;49.468;10.992;2023-04-24T03:27:21;14.60;99.90
14093;DHT22;7123;49.468;10.992;2023-04-24T03:29:47;14.50;99.90
14093;DHT22;7123;49.468;10.992;2023-04-24T03:32:14;14.40;99.90
14093;DHT22;7123;49.468;10.992;2023-04-24T03:34:41;14.40;99.90
14093;DHT22;7123;49.468;10.992;2023-04-24T03:37:07;14.30;99.90
14093;DHT22;7123;49.468;10.992;2023-04-24T03:39:34;14.30;99.90
14093;DHT22;7123;49.468;10.992;2023-04-24T03:42:01;14.30;99.90
14093;DHT22;7123;49.468;10.992;2023-04-24T03:44:28;14.30;99.90
14093;DHT22;7123;49.468;10.992;2023-04-24T03:46:55;14.30;99.90
14093;DHT22;7123;49.468;10.992;2023-04-24T03:49:21;14.40;99.90
14093;DHT22;7123;49.468;10.992;2023-04-24T03:51:48;14.50;99.90
14093;DHT22;7123;49.468;10.992;2023-04-24T03:54:15;14.60;99.90
14093;DHT22;7123;49.468;10.992;2023-04-24T03:56:41;14.60;99.90
14093;DHT22;7123;49.468;10.992;2023-04-24T03:59:10;14.60;99.90
14093;DHT22;7123;49.468;10.992;2023-04-24T04:01:37;14.50;99.90
14093;DHT22;7123;49.468;10.992;2023-04-24T04:04:04;14.50;99.90
14093;DHT22;7123;49.468;10.992;2023-04-24T04:06:31;14.50;99.90
14093;DHT22;7123;49.468;10.992;2023-04-24T04:08:58;14.50;99.90
14093;DHT22;7123;49.468;10.992;2023-04-24T04:11:25;14.50;99.90
14093;DHT22;7123;49.468;10.992;2023-04-24T04:13:52;14.50;99.90
14093;DHT22;7123;49.468;10.992;2023-04-24T04:16:19;14.50;99.90
14093;DHT22;7123;49.468;10.992;2023-04-24T04:18:46;14.60;99.90
14093;DHT22;7123;49.468;10.992;2023-04-24T04:21:12;14.60;99.90
14093;DHT22;7123;49.468;10.992;2023-04-24T04:23:39;14.60;99.90
14093;DHT22;7123;49.468;10.992;2023-04-24T04:26:06;14.60;99.90
14093;DHT22;7123;49.468;10.992;2023-04-24T04:28:34;14.60;99.90
14093;DHT22;7123;49.468;10.992;2023-04-24T04:31:01;14.50;99.90
14093;DHT22;7123;49.468;10.992;2023-04-24T04:33:28;14.60;99.90
14093;DHT22;7123;49.468;10.992;2023-04-24T04:35:55;14.60;99.90
14093;DHT22;7123;49.468;10.992;2023-04-24T04:38:23;14.60;99.90
14093;DHT22;7123;49.468;10.992;2023-04-24T04:40:49;14.60;99.90
14093;DHT22;7123;49.468;10.992;2023-04-24T04:43:16;14.50;99.90
14093;DHT22;7123;49.468;10.992;2023-04-24T04:45:43;14.60;99.90
14093;DHT22;7123;49.468;10.992;2023-04-24T04:48:10;14.60;99.90
14093;DHT22;7123;49.468;10.992;2023-04-24T04:50:39;14.50;99.90
14093;DHT22;7123;49.468;10.992;2023-04-24T04:53:06;14.50;99.90
14093;DHT22;7123;49.468;10.992;2023-04-24T04:55:33;14.50;99.90
14093;DHT22;7123;49.468;10.992;2023-04-24T04:58:00;14.50;99.90
14093;DHT22;7123;49.468;10.992;2023-04-24T05:00:27;14.50;99.90
14093;DHT22;7123;49.468;10.992;2023-04-24T05:02:55;14.50;99.90
14093;DHT22;7123;49.468;10.992;2023-04-24T05:05:34;14.40;99.90
14093;DHT22;7123;49.468;10.992;2023-04-24T05:08:01;14.40;99.90
14093;DHT22;7123;49.468;10.992;2023-04-24T05:10:28;14.30;99.90
14093;DHT22;7123;49.468;10.992;2023-04-24T05:12:55;14.30;99.90
14093;DHT22;7123;49.468;10.992;2023-04-24T05:15:21;14.20;99.90
14093;DHT22;7123;49.468;10.992;2023-04-24T05:17:48;14.20;99.90
14093;DHT22;7123;49.468;10.992;2023-04-24T05:20:15;14.20;99.90
14093;DHT22;7123;49.468;10.992;2023-04-24T05:22:41;14.20;99.90
14093;DHT22;7123;49.468;10.992;2023-04-24T05:25:08;14.30;99.90
14093;DHT22;7123;49.468;10.992;2023-04-24T05:27:35;14.30;99.90
14093;DHT22;7123;49.468;10.992;2023-04-24T05:30:02;14.40;99.90
14093;DHT22;7123;49.468;10.992;2023-04-24T05:32:29;14.40;99.90
14093;DHT22;7123;49.468;10.992;2023-04-24T05:34:55;14.50;99.90
14093;DHT22;7123;49.468;10.992;2023-04-24T05:37:22;14.50;99.90
14093;DHT22;7123;49.468;10.992;2023-04-24T05:39:49;14.50;99.90
14093;DHT22;7123;49.468;10.992;2023-04-24T05:42:16;14.50;99.90
14093;DHT22;7123;49.468;10.992;2023-04-24T05:44:42;14.60;99.90
14093;DHT22;7123;49.468;10.992;2023-04-24T05:47:09;14.60;99.90
14093;DHT22;7123;49.468;10.992;2023-04-24T05:49:36;14.60;99.90
14093;DHT22;7123;49.468;10.992;2023-04-24T05:52:02;14.60;99.90
14093;DHT22;7123;49.468;10.992;2023-04-24T05:54:30;14.60;99.90
14093;DHT22;7123;49.468;10.992;2023-04-24T05:56:57;14.60;99.90
14093;DHT22;7123;49.468;10.992;2023-04-24T05:59:23;14.60;99.90
14093;DHT22;7123;49.468;10.992;2023-04-24T06:01:50;14.60;99.90
14093;DHT22;7123;49.468;10.992;2023-04-24T06:04:17;14.60;99.90
14093;DHT22;7123;49.468;10.992;2023-04-24T06:06:45;14.60;99.90
14093;DHT22;7123;49.468;10.992;2023-04-24T06:09:12;14.50;99.90
14093;DHT22;7123;49.468;10.992;2023-04-24T06:11:39;14.60;99.90
14093;DHT22;7123;49.468;10.992;2023-04-24T06:14:05;14.50;99.90
14093;DHT22;7123;49.468;10.992;2023-04-24T06:16:32;14.20;99.90
14093;DHT22;7123;49.468;10.992;2023-04-24T06:18:59;14.10;99.90
14093;DHT22;7123;49.468;10.992;2023-04-24T06:21:26;13.90;99.90
14093;DHT22;7123;49.468;10.992;2023-04-24T06:23:54;13.70;99.90
14093;DHT22;7123;49.468;10.992;2023-04-24T06:26:22;13.50;99.90
14093;DHT22;7123;49.468;10.992;2023-04-24T06:28:51;12.90;99.90
14093;DHT22;7123;49.468;10.992;2023-04-24T06:31:18;12.60;99.90
14093;DHT22;7123;49.468;10.992;2023-04-24T06:33:44;12.20;99.90
14093;DHT22;7123;49.468;10.992;2023-04-24T06:36:12;12.00;99.90
14093;DHT22;7123;49.468;10.992;2023-04-24T06:38:39;11.90;99.90
14093;DHT22;7123;49.468;10.992;2023-04-24T06:41:05;11.80;99.90
14093;DHT22;7123;49.468;10.992;2023-04-24T06:43:32;11.50;99.90
14093;DHT22;7123;49.468;10.992;2023-04-24T06:46:00;11.40;99.90
14093;DHT22;7123;49.468;10.992;2023-04-24T06:48:26;11.40;99.90
14093;DHT22;7123;49.468;10.992;2023-04-24T06:50:53;11.40;99.90
14093;DHT22;7123;49.468;10.992;2023-04-24T06:53:20;11.50;99.90
14093;DHT22;7123;49.468;10.992;2023-04-24T06:55:46;11.50;99.90
14093;DHT22;7123;49.468;10.992;2023-04-24T06:58:13;11.50;99.90
14093;DHT22;7123;49.468;10.992;2023-04-24T07:00:41;11.50;99.90
14093;DHT22;7123;49.468;10.992;2023-04-24T07:03:08;11.50;99.90
14093;DHT22;7123;49.468;10.992;2023-04-24T07:05:35;11.60;99.90
14093;DHT22;7123;49.468;10.992;2023-04-24T07:08:02;11.50;99.90
14093;DHT22;7123;49.468;10.992;2023-04-24T07:10:29;11.40;99.90
14093;DHT22;7123;49.468;10.992;2023-04-24T07:12:56;11.40;99.90
14093;DHT22;7123;49.468;10.992;2023-04-24T07:15:23;11.40;99.90
14093;DHT22;7123;49.468;10.992;2023-04-24T07:17:50;11.40;99.90
14093;DHT22;7123;49.468;10.992;2023-04-24T07:20:16;11.50;99.90
14093;DHT22;7123;49.468;10.992;2023-04-24T07:22:43;11.50;99.90
14093;DHT22;7123;49.468;10.992;2023-04-24T07:25:11;11.60;99.90
14093;DHT22;7123;49.468;10.992;2023-04-24T07:27:38;11.50;99.90
14093;DHT22;7123;49.468;10.992;2023-04-24T07:30:05;11.50;99.90
14093;DHT22;7123;49.468;10.992;2023-04-24T07:32:33;11.50;99.90
14093;DHT22;7123;49.468;10.992;2023-04-24T07:34:59;11.40;99.90
14093;DHT22;7123;49.468;10.992;2023-04-24T07:37:26;11.50;99.90
14093;DHT22;7123;49.468;10.992;2023-04-24T07:39:54;11.50;99.90
14093;DHT22;7123;49.468;10.992;2023-04-24T07:42:21;11.50;99.90
14093;DHT22;7123;49.468;10.992;2023-04-24T07:44:48;11.40;99.90
14093;DHT22;7123;49.468;10.992;2023-04-24T07:47:15;11.30;99.90
14093;DHT22;7123;49.468;10.992;2023-04-24T07:49:42;11.40;99.90
14093;DHT22;7123;49.468;10.992;2023-04-24T07:52:09;11.40;99.90
14093;DHT22;7123;49.468;10.992;2023-04-24T07:54:39;11.40;99.90
14093;DHT22;7123;49.468;10.992;2023-04-24T07:57:05;11.50;99.90
14093;DHT22;7123;49.468;10.992;2023-04-24T07:59:33;11.60;99.90
14093;DHT22;7123;49.468;10.992;2023-04-24T08:02:00;11.70;99.90
14093;DHT22;7123;49.468;10.992;2023-04-24T08:04:28;11.80;99.90
14093;DHT22;7123;49.468;10.992;2023-04-24T08:06:55;11.90;99.90
14093;DHT22;7123;49.468;10.992;2023-04-24T08:09:21;11.90;99.90
14093;DHT22;7123;49.468;10.992;2023-04-24T08:11:48;12.00;99.90
14093;DHT22;7123;49.468;10.992;2023-04-24T08:14:15;12.10;99.90
14093;DHT22;7123;49.468;10.992;2023-04-24T08:16:42;12.00;99.90
14093;DHT22;7123;49.468;10.992;2023-04-24T08:19:09;12.00;99.90
14093;DHT22;7123;49.468;10.992;2023-04-24T08:21:36;11.80;99.90
14093;DHT22;7123;49.468;10.992;2023-04-24T08:24:03;11.80;99.90
14093;DHT22;7123;49.468;10.992;2023-04-24T08:26:33;11.70;99.90
14093;DHT22;7123;49.468;10.992;2023-04-24T08:29:00;11.60;99.90
14093;DHT22;7123;49.468;10.992;2023-04-24T08:31:27;11.50;99.90
14093;DHT22;7123;49.468;10.992;2023-04-24T08:33:54;11.50;99.90
14093;DHT22;7123;49.468;10.992;2023-04-24T08:36:20;11.50;99.90
14093;DHT22;7123;49.468;10.992;2023-04-24T08:38:48;11.50;99.90
14093;DHT22;7123;49.468;10.992;2023-04-24T08:41:15;11.50;99.90
14093;DHT22;7123;49.468;10.992;2023-04-24T08:43:42;11.60;99.90
14093;DHT22;7123;49.468;10.992;2023-04-24T08:46:10;11.70;99.90
14093;DHT22;7123;49.468;10.992;2023-04-24T08:48:39;11.70;99.90
14093;DHT22;7123;49.468;10.992;2023-04-24T08:51:07;11.80;99.90
14093;DHT22;7123;49.468;10.992;2023-04-24T08:53:35;11.90;99.90
14093;DHT22;7123;49.468;10.992;2023-04-24T08:56:02;11.90;99.90
14093;DHT22;7123;49.468;10.992;2023-04-24T08:58:31;11.90;99.90
14093;DHT22;7123;49.468;10.992;2023-04-24T09:00:58;11.90;99.90
14093;DHT22;7123;49.468;10.992;2023-04-24T09:03:27;11.70;99.90
14093;DHT22;7123;49.468;10.992;2023-04-24T09:05:55;11.70;99.90
14093;DHT22;7123;49.468;10.992;2023-04-24T09:08:25;11.60;99.90
14093;DHT22;7123;49.468;10.992;2023-04-24T09:10:52;11.60;99.90
14093;DHT22;7123;49.468;10.992;2023-04-24T09:13:20;11.70;99.90
14093;DHT22;7123;49.468;10.992;2023-04-24T09:15:47;11.90;99.90
14093;DHT22;7123;49.468;10.992;2023-04-24T09:18:13;11.90;99.90
14093;DHT22;7123;49.468;10.992;2023-04-24T09:21:00;12.10;99.90
14093;DHT22;7123;49.468;10.992;2023-04-24T09:23:31;12.20;99.90
14093;DHT22;7123;49.468;10.992;2023-04-24T09:26:00;12.20;99.90
14093;DHT22;7123;49.468;10.992;2023-04-24T09:28:37;12.20;99.90
14093;DHT22;7123;49.468;10.992;2023-04-24T09:31:13;12.20;99.90
14093;DHT22;7123;49.468;10.992;2023-04-24T09:33:59;12.30;99.90
14093;DHT22;7123;49.468;10.992;2023-04-24T09:36:29;12.40;99.90
14093;DHT22;7123;49.468;10.992;2023-04-24T09:39:01;12.40;99.90
14093;DHT22;7123;49.468;10.992;2023-04-24T09:41:28;12.60;99.90
14093;DHT22;7123;49.468;10.992;2023-04-24T09:43:56;12.70;99.90
14093;DHT22;7123;49.468;10.992;2023-04-24T09:46:30;12.90;99.90
14093;DHT22;7123;49.468;10.992;2023-04-24T09:49:14;13.10;99.90
14093;DHT22;7123;49.468;10.992;2023-04-24T09:51:42;13.00;99.90
14093;DHT22;7123;49.468;10.992;2023-04-24T09:54:19;13.00;99.90
14093;DHT22;7123;49.468;10.992;2023-04-24T09:56:49;12.90;99.90
14093;DHT22;7123;49.468;10.992;2023-04-24T09:59:18;12.60;99.90
14093;DHT22;7123;49.468;10.992;2023-04-24T10:01:46;12.80;99.90
14093;DHT22;7123;49.468;10.992;2023-04-24T10:04:19;12.80;99.90
14093;DHT22;7123;49.468;10.992;2023-04-24T10:06:48;13.00;99.90
14093;DHT22;7123;49.468;10.992;2023-04-24T10:09:19;13.00;99.90
14093;DHT22;7123;49.468;10.992;2023-04-24T10:11:48;13.10;99.90
14093;DHT22;7123;49.468;10.992;2023-04-24T10:14:20;13.10;99.90
14093;DHT22;7123;49.468;10.992;2023-04-24T10:16:50;13.10;99.90
14093;DHT22;7123;49.468;10.992;2023-04-24T10:19:19;13.20;99.90
14093;DHT22;7123;49.468;10.992;2023-04-24T10:21:46;13.30;99.90
14093;DHT22;7123;49.468;10.992;2023-04-24T10:24:18;13.40;99.90
14093;DHT22;7123;49.468;10.992;2023-04-24T10:26:45;13.50;99.90
14093;DHT22;7123;49.468;10.992;2023-04-24T10:29:16;13.50;99.90
14093;DHT22;7123;49.468;10.992;2023-04-24T10:31:43;13.50;99.90
14093;DHT22;7123;49.468;10.992;2023-04-24T10:34:15;13.40;99.90
14093;DHT22;7123;49.468;10.992;2023-04-24T10:36:49;13.20;99.90
14093;DHT22;7123;49.468;10.992;2023-04-24T10:39:17;13.00;99.90
14093;DHT22;7123;49.468;10.992;2023-04-24T10:41:53;12.90;99.90
14093;DHT22;7123;49.468;10.992;2023-04-24T10:44:22;12.70;99.90
14093;DHT22;7123;49.468;10.992;2023-04-24T10:46:56;12.40;99.90
14093;DHT22;7123;49.468;10.992;2023-04-24T10:49:30;12.20;99.90
14093;DHT22;7123;49.468;10.992;2023-04-24T10:52:02;12.00;99.90
14093;DHT22;7123;49.468;10.992;2023-04-24T10:54:41;11.90;99.90
14093;DHT22;7123;49.468;10.992;2023-04-24T10:59:44;11.70;99.90
14093;DHT22;7123;49.468;10.992;2023-04-24T11:02:14;11.50;99.90
14093;DHT22;7123;49.468;10.992;2023-04-24T11:04:41;11.70;99.90
14093;DHT22;7123;49.468;10.992;2023-04-24T11:07:12;11.70;99.90
14093;DHT22;7123;49.468;10.992;2023-04-24T11:09:42;11.70;99.90
14093;DHT22;7123;49.468;10.992;2023-04-24T11:12:11;11.70;99.90
14093;DHT22;7123;49.468;10.992;2023-04-24T11:17:36;12.00;99.90
14093;DHT22;7123;49.468;10.992;2023-04-24T11:20:08;12.10;99.90
14093;DHT22;7123;49.468;10.992;2023-04-24T11:22:54;12.20;99.90
14093;DHT22;7123;49.468;10.992;2023-04-24T11:25:24;12.30;99.90
14093;DHT22;7123;49.468;10.992;2023-04-24T11:28:03;12.40;99.90
14093;DHT22;7123;49.468;10.992;2023-04-24T11:30:31;12.60;99.90
14093;DHT22;7123;49.468;10.992;2023-04-24T11:33:03;12.60;99.90
14093;DHT22;7123;49.468;10.992;2023-04-24T11:35:35;12.60;99.90
14093;DHT22;7123;49.468;10.992;2023-04-24T11:38:04;12.80;99.90
14093;DHT22;7123;49.468;10.992;2023-04-24T11:40:34;12.90;99.90
14093;DHT22;7123;49.468;10.992;2023-04-24T11:43:02;12.90;99.90
14093;DHT22;7123;49.468;10.992;2023-04-24T11:45:33;13.00;99.90
14093;DHT22;7123;49.468;10.992;2023-04-24T11:48:03;13.00;99.90
14093;DHT22;7123;49.468;10.992;2023-04-24T11:50:30;13.00;99.90
14093;DHT22;7123;49.468;10.992;2023-04-24T11:52:57;12.70;99.90
14093;DHT22;7123;49.468;10.992;2023-04-24T11:55:24;12.60;99.90
14093;DHT22;7123;49.468;10.992;2023-04-24T11:57:55;12.60;99.90
14093;DHT22;7123;49.468;10.992;2023-04-24T12:00:31;12.40;99.90
14093;DHT22;7123;49.468;10.992;2023-04-24T12:03:08;12.30;99.90
14093;DHT22;7123;49.468;10.992;2023-04-24T12:05:36;12.30;99.90
14093;DHT22;7123;49.468;10.992;2023-04-24T12:08:03;12.50;99.90
14093;DHT22;7123;49.468;10.992;2023-04-24T12:10:32;12.60;99.90
14093;DHT22;7123;49.468;10.992;2023-04-24T12:12:59;12.70;99.90
14093;DHT22;7123;49.468;10.992;2023-04-24T12:15:27;12.70;99.90
14093;DHT22;7123;49.468;10.992;2023-04-24T12:17:55;12.60;99.90
14093;DHT22;7123;49.468;10.992;2023-04-24T12:20:28;12.60;99.90
14093;DHT22;7123;49.468;10.992;2023-04-24T12:22:57;12.60;99.90
14093;DHT22;7123;49.468;10.992;2023-04-24T12:25:26;12.80;99.90
14093;DHT22;7123;49.468;10.992;2023-04-24T12:28:13;12.90;99.90
14093;DHT22;7123;49.468;10.992;2023-04-24T12:30:46;12.90;99.90
14093;DHT22;7123;49.468;10.992;2023-04-24T12:33:21;12.80;99.90
14093;DHT22;7123;49.468;10.992;2023-04-24T12:35:51;12.80;99.90
14093;DHT22;7123;49.468;10.992;2023-04-24T12:38:23;12.80;99.90
14093;DHT22;7123;49.468;10.992;2023-04-24T12:41:07;12.70;99.90
14093;DHT22;7123;49.468;10.992;2023-04-24T12:43:35;12.80;99.90
14093;DHT22;7123;49.468;10.992;2023-04-24T12:46:02;12.90;99.90
14093;DHT22;7123;49.468;10.992;2023-04-24T12:48:29;12.90;99.90
14093;DHT22;7123;49.468;10.992;2023-04-24T12:50:59;13.00;99.90
14093;DHT22;7123;49.468;10.992;2023-04-24T12:53:29;12.80;99.90
14093;DHT22;7123;49.468;10.992;2023-04-24T12:55:57;12.80;99.90
14093;DHT22;7123;49.468;10.992;2023-04-24T12:58:24;12.70;99.90
14093;DHT22;7123;49.468;10.992;2023-04-24T13:00:51;12.60;99.90
14093;DHT22;7123;49.468;10.992;2023-04-24T13:03:18;12.50;99.90
14093;DHT22;7123;49.468;10.992;2023-04-24T13:05:45;12.60;99.90
14093;DHT22;7123;49.468;10.992;2023-04-24T13:08:12;12.60;99.90
14093;DHT22;7123;49.468;10.992;2023-04-24T13:10:39;12.70;99.90
14093;DHT22;7123;49.468;10.992;2023-04-24T13:13:07;12.70;99.90
14093;DHT22;7123;49.468;10.992;2023-04-24T13:15:34;12.70;99.90
14093;DHT22;7123;49.468;10.992;2023-04-24T13:18:01;12.70;99.90
14093;DHT22;7123;49.468;10.992;2023-04-24T13:20:28;12.60;99.90
14093;DHT22;7123;49.468;10.992;2023-04-24T13:22:54;12.50;99.90
14093;DHT22;7123;49.468;10.992;2023-04-24T13:25:21;12.50;99.90
14093;DHT22;7123;49.468;10.992;2023-04-24T13:27:49;12.40;99.90
14093;DHT22;7123;49.468;10.992;2023-04-24T13:30:17;12.40;99.90
14093;DHT22;7123;49.468;10.992;2023-04-24T13:32:44;12.40;99.90
14093;DHT22;7123;49.468;10.992;2023-04-24T13:35:10;12.40;99.90
14093;DHT22;7123;49.468;10.992;2023-04-24T13:37:37;12.30;99.90
14093;DHT22;7123;49.468;10.992;2023-04-24T13:40:04;12.30;99.90
14093;DHT22;7123;49.468;10.992;2023-04-24T13:42:32;12.30;99.90
14093;DHT22;7123;49.468;10.992;2023-04-24T13:44:59;12.20;99.90
14093;DHT22;7123;49.468;10.992;2023-04-24T13:47:29;11.80;99.90
14093;DHT22;7123;49.468;10.992;2023-04-24T13:49:56;11.80;99.90
14093;DHT22;7123;49.468;10.992;2023-04-24T13:52:22;11.70;99.90
14093;DHT22;7123;49.468;10.992;2023-04-24T13:54:49;11.50;99.90
14093;DHT22;7123;49.468;10.992;2023-04-24T13:57:16;11.60;99.90
14093;DHT22;7123;49.468;10.992;2023-04-24T13:59:43;11.60;99.90
14093;DHT22;7123;49.468;10.992;2023-04-24T14:02:10;11.60;99.90
14093;DHT22;7123;49.468;10.992;2023-04-24T14:04:36;11.60;99.90
14093;DHT22;7123;49.468;10.992;2023-04-24T14:07:04;11.80;99.90
14093;DHT22;7123;49.468;10.992;2023-04-24T14:09:30;11.90;99.90
14093;DHT22;7123;49.468;10.992;2023-04-24T14:11:57;12.20;99.90
14093;DHT22;7123;49.468;10.992;2023-04-24T14:14:24;12.40;99.90
14093;DHT22;7123;49.468;10.992;2023-04-24T14:16:50;12.40;99.90
14093;DHT22;7123;49.468;10.992;2023-04-24T14:19:17;12.40;99.90
14093;DHT22;7123;49.468;10.992;2023-04-24T14:21:44;12.40;99.90
14093;DHT22;7123;49.468;10.992;2023-04-24T14:24:11;12.50;99.90
14093;DHT22;7123;49.468;10.992;2023-04-24T14:26:38;12.60;99.90
14093;DHT22;7123;49.468;10.992;2023-04-24T14:29:04;12.80;99.90
14093;DHT22;7123;49.468;10.992;2023-04-24T14:31:41;13.00;99.90
14093;DHT22;7123;49.468;10.992;2023-04-24T14:34:08;12.90;99.90
14093;DHT22;7123;49.468;10.992;2023-04-24T14:36:35;12.90;99.90
14093;DHT22;7123;49.468;10.992;2023-04-24T14:39:02;12.80;99.90
14093;DHT22;7123;49.468;10.992;2023-04-24T14:41:33;12.80;99.90
14093;DHT22;7123;49.468;10.992;2023-04-24T14:44:03;12.60;99.90
14093;DHT22;7123;49.468;10.992;2023-04-24T14:46:30;12.70;99.90
14093;DHT22;7123;49.468;10.992;2023-04-24T14:48:57;12.60;99.90
14093;DHT22;7123;49.468;10.992;2023-04-24T14:51:24;12.30;99.90
14093;DHT22;7123;49.468;10.992;2023-04-24T14:53:51;12.40;99.90
14093;DHT22;7123;49.468;10.992;2023-04-24T14:56:18;12.60;99.90
14093;DHT22;7123;49.468;10.992;2023-04-24T14:58:45;12.80;99.90
14093;DHT22;7123;49.468;10.992;2023-04-24T15:01:12;13.10;99.90
14093;DHT22;7123;49.468;10.992;2023-04-24T15:03:38;13.40;99.90
14093;DHT22;7123;49.468;10.992;2023-04-24T15:06:05;13.30;99.90
14093;DHT22;7123;49.468;10.992;2023-04-24T15:08:32;13.00;99.90
14093;DHT22;7123;49.468;10.992;2023-04-24T15:10:59;13.00;99.90
14093;DHT22;7123;49.468;10.992;2023-04-24T15:13:26;13.10;99.90
14093;DHT22;7123;49.468;10.992;2023-04-24T15:15:52;13.30;99.90
14093;DHT22;7123;49.468;10.992;2023-04-24T15:18:19;13.40;99.90
14093;DHT22;7123;49.468;10.992;2023-04-24T15:20:45;13.30;99.90
14093;DHT22;7123;49.468;10.992;2023-04-24T15:23:12;13.20;99.90
14093;DHT22;7123;49.468;10.992;2023-04-24T15:25:39;13.10;99.90
14093;DHT22;7123;49.468;10.992;2023-04-24T15:28:06;13.10;99.90
14093;DHT22;7123;49.468;10.992;2023-04-24T15:30:33;13.00;99.90
14093;DHT22;7123;49.468;10.992;2023-04-24T15:33:00;13.10;99.90
14093;DHT22;7123;49.468;10.992;2023-04-24T15:35:27;13.20;99.90
14093;DHT22;7123;49.468;10.992;2023-04-24T15:37:54;13.30;99.90
14093;DHT22;7123;49.468;10.992;2023-04-24T15:40:21;13.30;99.90